Time;durP1;ratioP1;P1;durP2;ratioP2;P2;SDS_P1;SDS_P2;PMS_P1;PMS_P2;Temp;Humidity;BMP_temperature;BMP_pressure;BME280_temperature;BME280_humidity;BME280_pressure;Samples;Min_cycle;Max_cycle;Signal;HPM_P1;HPM_P2
2021/12/02 00:00:59;;;;;;;2.00;1.00;;;3.20;95.80;;;;;;5006871;28;20084;-77
2021/12/02 00:03:26;;;;;;;1.33;0.90;;;3.30;95.60;;;;;;5007600;28;20314;-76
2021/12/02 00:05:51;;;;;;;1.48;0.90;;;3.30;95.60;;;;;;5008827;28;20026;-76
2021/12/02 00:08:17;;;;;;;3.58;1.10;;;3.20;95.90;;;;;;5005734;28;20407;-77
2021/12/02 00:10:43;;;;;;;1.80;0.90;;;3.20;95.60;;;;;;5006081;28;20044;-77
2021/12/02 00:13:11;;;;;;;2.67;1.35;;;3.20;95.60;;;;;;5006005;28;20100;-77
2021/12/02 00:15:56;;;;;;;2.08;1.00;;;3.20;95.50;;;;;;5020689;28;20022;-77
2021/12/02 00:21:04;;;;;;;1.60;0.93;;;3.20;95.40;;;;;;5005426;28;20037;-77
2021/12/02 00:24:09;;;;;;;1.33;0.90;;;3.10;95.40;;;;;;5007802;28;20031;-76
2021/12/02 00:26:39;;;;;;;1.77;0.82;;;3.10;95.20;;;;;;5005908;28;20180;-76
2021/12/02 00:29:07;;;;;;;0.85;0.80;;;3.10;95.80;;;;;;5004509;28;20046;-75
2021/12/02 00:31:35;;;;;;;1.17;0.85;;;3.20;96.20;;;;;;5006861;28;20037;-75
2021/12/02 00:34:04;;;;;;;1.38;0.88;;;3.10;96.50;;;;;;5006723;28;20350;-75
2021/12/02 00:36:32;;;;;;;1.40;0.80;;;3.10;96.80;;;;;;5005882;28;20038;-76
2021/12/02 00:39:00;;;;;;;1.00;0.73;;;3.10;97.10;;;;;;5005647;28;20447;-75
2021/12/02 00:41:27;;;;;;;1.58;0.85;;;3.10;97.60;;;;;;5007657;28;20036;-75
2021/12/02 00:43:56;;;;;;;2.17;0.90;;;3.10;97.30;;;;;;5021928;28;20034;-76
2021/12/02 00:46:24;;;;;;;1.75;0.90;;;3.10;97.40;;;;;;5007417;28;20030;-75
2021/12/02 00:48:50;;;;;;;1.55;0.90;;;3.10;97.80;;;;;;5005157;28;20093;-77
2021/12/02 00:51:18;;;;;;;1.88;1.00;;;3.10;98.00;;;;;;5005094;28;20026;-75
2021/12/02 00:53:51;;;;;;;1.38;0.88;;;3.10;98.00;;;;;;5006166;28;20018;-75
2021/12/02 00:56:25;;;;;;;2.50;0.98;;;3.10;98.00;;;;;;5005161;28;20054;-76
2021/12/02 00:58:52;;;;;;;2.35;0.90;;;3.10;98.00;;;;;;5004561;28;20056;-76
2021/12/02 01:01:20;;;;;;;4.13;1.13;;;3.10;98.00;;;;;;5008205;28;20022;-75
2021/12/02 01:03:50;;;;;;;1.42;0.95;;;3.10;98.00;;;;;;5005150;28;20026;-76
2021/12/02 01:06:16;;;;;;;2.25;0.98;;;3.10;98.00;;;;;;5004666;28;20061;-77
2021/12/02 01:08:42;;;;;;;2.25;1.00;;;3.10;98.00;;;;;;5005818;28;20044;-75
2021/12/02 01:11:10;;;;;;;2.28;1.20;;;3.10;98.00;;;;;;5006294;28;20033;-76
2021/12/02 01:13:36;;;;;;;2.20;1.00;;;3.10;98.00;;;;;;5006645;28;20037;-76
2021/12/02 01:16:02;;;;;;;2.40;1.20;;;3.20;98.00;;;;;;5005128;28;20033;-76
2021/12/02 01:18:28;;;;;;;2.65;1.10;;;3.20;98.00;;;;;;5004482;28;20046;-76
2021/12/02 01:20:55;;;;;;;4.75;1.45;;;3.20;98.00;;;;;;5003781;28;20027;-76
2021/12/02 01:23:23;;;;;;;2.78;1.40;;;3.20;97.60;;;;;;5001854;28;20052;-76
2021/12/02 01:25:54;;;;;;;2.90;1.30;;;3.20;97.60;;;;;;5003940;28;20046;-76
2021/12/02 01:28:23;;;;;;;2.22;1.20;;;3.20;97.30;;;;;;5007418;28;20026;-76
2021/12/02 01:30:52;;;;;;;2.95;1.20;;;3.10;97.10;;;;;;5004214;28;20057;-76
2021/12/02 01:33:20;;;;;;;2.50;1.20;;;3.10;97.20;;;;;;5006262;28;20126;-76
2021/12/02 01:35:50;;;;;;;2.95;1.30;;;3.10;97.10;;;;;;5012608;28;20018;-76
2021/12/02 01:38:16;;;;;;;3.60;1.13;;;3.10;96.80;;;;;;5012764;28;20026;-75
2021/12/02 01:40:44;;;;;;;3.15;1.30;;;3.00;96.50;;;;;;5007932;28;20022;-76
2021/12/02 01:43:14;;;;;;;3.78;1.40;;;3.00;96.30;;;;;;5006927;28;20029;-75
2021/12/02 01:45:40;;;;;;;2.97;1.58;;;3.00;96.30;;;;;;5005238;28;20053;-76
2021/12/02 01:48:10;;;;;;;3.15;1.55;;;3.00;96.00;;;;;;5005090;28;20022;-77
2021/12/02 01:50:38;;;;;;;2.72;1.33;;;3.00;96.40;;;;;;5004632;28;20075;-77
2021/12/02 01:53:05;;;;;;;1.90;1.17;;;3.00;95.90;;;;;;5002960;28;20040;-76
2021/12/02 01:55:31;;;;;;;2.85;1.17;;;3.00;95.90;;;;;;5005854;28;20037;-76
2021/12/02 01:58:02;;;;;;;3.15;1.42;;;2.90;96.00;;;;;;5003297;28;20026;-75
2021/12/02 02:00:41;;;;;;;4.43;1.25;;;3.00;95.80;;;;;;5003652;28;20072;-76
2021/12/02 02:03:08;;;;;;;1.92;1.00;;;3.00;96.10;;;;;;5002554;28;20061;-77
2021/12/02 02:05:34;;;;;;;2.70;1.10;;;3.00;95.90;;;;;;5004027;28;20022;-77
2021/12/02 02:08:17;;;;;;;2.20;1.20;;;3.10;95.80;;;;;;5002351;28;20331;-76
2021/12/02 02:10:44;;;;;;;2.55;1.13;;;3.10;96.00;;;;;;5004129;28;20363;-76
2021/12/02 02:13:12;;;;;;;3.95;1.60;;;3.20;96.50;;;;;;5003971;28;20038;-75
2021/12/02 02:15:41;;;;;;;3.05;1.40;;;3.20;96.80;;;;;;5005556;28;20034;-76
2021/12/02 02:18:13;;;;;;;9.60;6.25;;;3.20;96.80;;;;;;5004416;28;20030;-75
2021/12/02 02:21:05;;;;;;;7.03;2.70;;;3.20;96.80;;;;;;5003537;28;20088;-76
2021/12/02 02:23:38;;;;;;;3.55;1.63;;;3.30;97.80;;;;;;5003222;28;20068;-75
2021/12/02 02:26:06;;;;;;;2.90;1.30;;;3.30;97.60;;;;;;5004084;28;20045;-75
2021/12/02 02:28:32;;;;;;;3.20;1.50;;;3.30;97.60;;;;;;5003626;28;20037;-77
2021/12/02 02:30:58;;;;;;;2.72;1.60;;;3.30;98.00;;;;;;5004607;28;20042;-77
2021/12/02 02:33:24;;;;;;;2.95;1.42;;;3.30;97.90;;;;;;5004042;28;20034;-76
2021/12/02 02:35:50;;;;;;;4.25;1.60;;;3.40;98.00;;;;;;5005297;28;20084;-78
2021/12/02 02:38:16;;;;;;;4.65;2.13;;;3.40;97.70;;;;;;5004463;28;20362;-77
2021/12/02 02:40:45;;;;;;;7.32;1.90;;;3.40;97.70;;;;;;5009290;28;20029;-77
2021/12/02 02:43:19;;;;;;;2.67;1.65;;;3.30;97.20;;;;;;5008568;28;20022;-78
2021/12/02 02:45:45;;;;;;;3.67;1.80;;;3.10;97.60;;;;;;5008634;28;20426;-77
2021/12/02 02:48:11;;;;;;;2.95;1.83;;;2.90;96.80;;;;;;5006863;28;20036;-77
2021/12/02 02:50:37;;;;;;;2.15;1.35;;;2.90;96.30;;;;;;5008969;28;20105;-77
2021/12/02 02:53:19;;;;;;;2.78;1.50;;;2.80;96.60;;;;;;5010968;28;20026;-77
2021/12/02 02:55:55;;;;;;;2.15;1.20;;;2.60;96.50;;;;;;5008885;28;20338;-77
2021/12/02 03:04:25;;;;;;;4.57;1.67;;;2.60;95.60;;;;;;5009982;28;20033;-76
2021/12/02 03:16:37;;;;;;;1.95;1.30;;;2.40;95.10;;;;;;5009725;28;20040;-77
2021/12/02 03:17:17;;;;;;;2.30;1.25;;;2.40;94.70;;;;;;5008296;28;20026;-77
2021/12/02 03:19:45;;;;;;;3.83;1.48;;;2.40;94.10;;;;;;5010045;28;20041;-77
2021/12/02 03:22:13;;;;;;;3.83;1.50;;;2.30;94.40;;;;;;5010307;28;20108;-76
2021/12/02 03:24:39;;;;;;;2.38;1.35;;;2.30;94.20;;;;;;5009022;28;20026;-78
2021/12/02 03:27:06;;;;;;;2.83;1.42;;;2.30;94.10;;;;;;5008589;28;20176;-76
2021/12/02 03:29:31;;;;;;;3.13;1.80;;;2.40;93.40;;;;;;5008999;28;20095;-76
2021/12/02 03:31:57;;;;;;;5.30;2.15;;;2.40;93.40;;;;;;5024956;28;20034;-76
2021/12/02 03:34:23;;;;;;;3.30;1.60;;;2.50;93.20;;;;;;5009405;28;20136;-76
2021/12/02 03:36:49;;;;;;;3.67;1.80;;;2.50;93.90;;;;;;5011075;28;20157;-76
2021/12/02 03:39:15;;;;;;;4.28;1.77;;;2.60;93.50;;;;;;5009647;28;20038;-76
2021/12/02 03:41:40;;;;;;;3.88;1.40;;;2.60;93.90;;;;;;5009349;28;20022;-76
2021/12/02 03:44:07;;;;;;;3.40;1.83;;;2.70;93.80;;;;;;5008154;28;20048;-76
2021/12/02 03:46:33;;;;;;;3.15;1.52;;;2.70;93.90;;;;;;5009053;28;20045;-77
2021/12/02 03:48:59;;;;;;;3.15;1.55;;;2.70;94.30;;;;;;5007989;28;20435;-77
2021/12/02 03:51:25;;;;;;;4.95;1.95;;;2.80;95.10;;;;;;5009890;28;20037;-76
2021/12/02 03:53:51;;;;;;;3.75;1.70;;;2.80;95.40;;;;;;5011271;28;20107;-77
2021/12/02 03:56:18;;;;;;;4.68;2.40;;;2.80;96.40;;;;;;5010431;28;20030;-75
2021/12/02 03:58:45;;;;;;;4.60;1.67;;;2.80;96.70;;;;;;5007037;28;20038;-77
2021/12/02 04:01:12;;;;;;;6.22;1.60;;;2.90;97.80;;;;;;5010691;28;20029;-76
2021/12/02 04:03:38;;;;;;;4.20;1.40;;;2.90;97.90;;;;;;5008840;28;20029;-75
2021/12/02 04:06:06;;;;;;;2.85;1.40;;;2.80;98.00;;;;;;5010380;28;20109;-77
2021/12/02 04:08:56;;;;;;;3.33;1.65;;;2.80;98.00;;;;;;5005898;28;20033;-76
2021/12/02 04:12:09;;;;;;;3.03;1.42;;;2.80;98.00;;;;;;5009755;28;20057;-76
2021/12/02 04:16:52;;;;;;;3.92;1.60;;;2.60;98.00;;;;;;5008119;28;20298;-77
2021/12/02 04:19:19;;;;;;;5.38;1.80;;;2.60;98.00;;;;;;5009290;28;20037;-76
2021/12/02 04:21:45;;;;;;;3.55;1.67;;;2.50;97.60;;;;;;5024311;28;20165;-75
2021/12/02 04:24:11;;;;;;;4.95;2.00;;;2.40;97.20;;;;;;5007799;28;20022;-77
2021/12/02 04:26:39;;;;;;;2.97;1.85;;;2.40;97.20;;;;;;5006298;28;20050;-77
2021/12/02 04:29:04;;;;;;;5.05;1.60;;;2.40;96.80;;;;;;5007539;28;20081;-77
2021/12/02 04:31:30;;;;;;;2.03;1.25;;;2.40;96.60;;;;;;5006343;28;20375;-77
2021/12/02 04:33:56;;;;;;;4.78;1.40;;;2.40;96.60;;;;;;5011188;28;20457;-76
2021/12/02 04:36:21;;;;;;;1.83;1.10;;;2.40;96.70;;;;;;5007895;28;20756;-75
2021/12/02 04:38:47;;;;;;;4.60;1.50;;;2.30;96.40;;;;;;5006888;28;20026;-76
2021/12/02 04:41:15;;;;;;;3.20;1.63;;;2.20;96.50;;;;;;5008512;28;20025;-77
2021/12/02 04:43:41;;;;;;;3.58;1.52;;;2.20;96.00;;;;;;5007915;28;20638;-77
2021/12/02 04:46:07;;;;;;;4.35;2.17;;;2.20;95.70;;;;;;5008920;28;20026;-77
2021/12/02 04:48:32;;;;;;;6.00;2.20;;;2.20;96.00;;;;;;5024887;28;20029;-77
2021/12/02 04:50:59;;;;;;;4.75;2.00;;;2.10;95.60;;;;;;5015020;28;20029;-77
2021/12/02 04:53:24;;;;;;;6.28;1.98;;;2.20;95.40;;;;;;5013020;28;20052;-77
2021/12/02 04:55:50;;;;;;;3.60;1.80;;;2.20;95.80;;;;;;5015479;28;20025;-77
2021/12/02 04:58:16;;;;;;;4.53;1.90;;;2.20;95.30;;;;;;5009563;28;20057;-76
2021/12/02 05:00:41;;;;;;;6.18;2.20;;;2.30;95.30;;;;;;5006384;28;20041;-77
2021/12/02 05:03:07;;;;;;;5.25;2.33;;;2.30;96.00;;;;;;5005049;28;20437;-76
2021/12/02 05:05:33;;;;;;;5.47;1.85;;;2.40;95.70;;;;;;5008052;28;20119;-77
2021/12/02 05:08:00;;;;;;;5.75;1.65;;;2.50;95.60;;;;;;5005533;28;20113;-77
2021/12/02 05:10:27;;;;;;;8.98;2.72;;;2.50;96.40;;;;;;5007669;28;20032;-78
2021/12/02 05:12:52;;;;;;;5.20;1.60;;;2.50;96.50;;;;;;5008366;28;20060;-77
2021/12/02 05:15:18;;;;;;;5.88;1.70;;;2.60;96.60;;;;;;5007597;28;21438;-77
2021/12/02 05:17:44;;;;;;;10.07;3.35;;;2.60;97.20;;;;;;5007632;28;20035;-77
2021/12/02 05:20:11;;;;;;;6.35;2.10;;;2.60;97.40;;;;;;5007811;28;20048;-76
2021/12/02 05:22:39;;;;;;;5.53;2.38;;;2.50;97.50;;;;;;5007545;28;20026;-76
2021/12/02 05:25:06;;;;;;;3.70;1.85;;;2.50;97.90;;;;;;5005316;28;20374;-79
2021/12/02 05:27:32;;;;;;;7.85;2.95;;;2.60;98.00;;;;;;5005835;28;20084;-78
2021/12/02 05:29:58;;;;;;;7.30;1.80;;;2.50;98.00;;;;;;5007391;28;20427;-76
2021/12/02 05:32:24;;;;;;;5.22;1.90;;;2.60;98.00;;;;;;5009820;28;20030;-78
2021/12/02 05:34:50;;;;;;;4.25;1.80;;;2.50;98.00;;;;;;5005985;28;20041;-78
2021/12/02 05:37:16;;;;;;;5.22;1.70;;;2.50;98.00;;;;;;5006575;28;20030;-77
2021/12/02 05:39:43;;;;;;;8.38;3.35;;;2.40;97.70;;;;;;5005503;28;20411;-77
2021/12/02 05:42:11;;;;;;;5.30;2.22;;;2.40;97.80;;;;;;5006127;28;20026;-77
2021/12/02 05:44:37;;;;;;;7.35;2.10;;;2.50;97.80;;;;;;5006160;28;20427;-77
2021/12/02 05:47:03;;;;;;;8.50;3.05;;;2.50;98.00;;;;;;5005707;28;20097;-76
2021/12/02 05:49:29;;;;;;;8.35;4.35;;;2.60;97.90;;;;;;5006159;28;20026;-77
2021/12/02 05:51:54;;;;;;;7.65;2.70;;;2.60;97.90;;;;;;5006555;28;20026;-78
2021/12/02 05:54:20;;;;;;;5.72;2.90;;;2.60;97.50;;;;;;5006066;28;20037;-77
2021/12/02 05:56:46;;;;;;;6.93;2.20;;;2.60;98.00;;;;;;5022239;28;20038;-77
2021/12/02 05:59:11;;;;;;;5.57;2.25;;;2.60;98.00;;;;;;5006246;28;20129;-77
2021/12/02 06:01:41;;;;;;;5.70;2.38;;;2.60;98.00;;;;;;5006440;28;20041;-77
2021/12/02 06:04:08;;;;;;;4.60;2.10;;;2.70;97.70;;;;;;5006985;28;20326;-76
2021/12/02 06:06:34;;;;;;;4.22;1.60;;;2.60;98.00;;;;;;5002784;28;20054;-77
2021/12/02 06:08:59;;;;;;;4.43;1.60;;;2.60;98.00;;;;;;5004245;28;20137;-75
2021/12/02 06:11:26;;;;;;;6.18;2.00;;;2.70;98.00;;;;;;5007081;28;20037;-76
2021/12/02 06:13:53;;;;;;;5.82;1.85;;;2.80;98.00;;;;;;5008687;28;20472;-77
2021/12/02 06:16:20;;;;;;;4.32;1.48;;;2.80;98.00;;;;;;5009629;28;20037;-77
2021/12/02 06:18:46;;;;;;;4.55;1.50;;;2.80;98.00;;;;;;5010809;28;20030;-78
2021/12/02 06:21:12;;;;;;;4.47;1.83;;;2.90;98.00;;;;;;5022630;28;20030;-77
2021/12/02 06:23:40;;;;;;;4.68;1.75;;;2.80;98.00;;;;;;5007210;28;20026;-77
2021/12/02 06:26:06;;;;;;;6.28;1.52;;;2.80;98.00;;;;;;5008161;28;20068;-77
2021/12/02 06:28:31;;;;;;;7.45;2.30;;;2.80;98.00;;;;;;5025240;28;20022;-77
2021/12/02 06:30:57;;;;;;;3.20;1.50;;;2.80;98.00;;;;;;5010604;28;20947;-77
2021/12/02 06:33:22;;;;;;;4.53;1.80;;;2.80;98.00;;;;;;5008925;28;20026;-77
2021/12/02 06:35:48;;;;;;;3.80;1.50;;;2.80;98.00;;;;;;5011159;28;20030;-77
2021/12/02 06:38:14;;;;;;;5.93;2.72;;;2.70;98.00;;;;;;5009303;28;20025;-77
2021/12/02 06:40:42;;;;;;;6.78;2.60;;;2.70;98.00;;;;;;5012197;28;20045;-77
2021/12/02 06:43:09;;;;;;;8.60;3.78;;;2.70;98.00;;;;;;5014433;28;20442;-78
2021/12/02 06:45:35;;;;;;;13.57;5.60;;;2.70;98.00;;;;;;5011588;28;20053;-77
2021/12/02 06:48:00;;;;;;;6.95;3.08;;;2.70;98.00;;;;;;5012476;28;20062;-78
2021/12/02 06:50:29;;;;;;;6.70;2.53;;;2.70;98.00;;;;;;5019221;28;20022;-77
2021/12/02 06:52:55;;;;;;;5.25;2.45;;;2.70;98.00;;;;;;5016904;28;20604;-78
2021/12/02 06:55:22;;;;;;;7.78;2.47;;;2.70;98.00;;;;;;5019062;28;20465;-78
2021/12/02 06:57:48;;;;;;;6.63;2.50;;;2.70;97.80;;;;;;5018630;28;20033;-78
2021/12/02 07:00:16;;;;;;;8.80;3.20;;;2.70;98.00;;;;;;5019062;28;20026;-77
2021/12/02 07:02:42;;;;;;;7.82;2.63;;;2.70;98.00;;;;;;5018779;28;20021;-78
2021/12/02 07:05:11;;;;;;;6.78;2.70;;;2.70;97.90;;;;;;5018982;28;20030;-78
2021/12/02 07:07:37;;;;;;;10.15;3.30;;;2.70;97.80;;;;;;5016318;28;20026;-78
2021/12/02 07:10:25;;;;;;;8.35;3.20;;;2.70;97.80;;;;;;5034213;28;20033;-78
2021/12/02 07:12:56;;;;;;;9.77;4.30;;;2.70;97.30;;;;;;5018571;28;20026;-78
2021/12/02 07:15:32;;;;;;;9.55;4.90;;;2.70;97.50;;;;;;5018843;28;20033;-78
2021/12/02 07:18:00;;;;;;;9.75;3.95;;;2.70;97.40;;;;;;5017312;28;20480;-78
2021/12/02 07:20:35;;;;;;;5.70;2.53;;;2.70;98.00;;;;;;5017547;28;20029;-78
2021/12/02 07:23:01;;;;;;;5.68;2.85;;;2.70;98.00;;;;;;4997171;28;20073;-77
2021/12/02 07:25:28;;;;;;;9.80;4.25;;;2.80;98.00;;;;;;4998597;28;20065;-77
2021/12/02 07:27:54;;;;;;;16.13;6.03;;;2.80;98.00;;;;;;5001657;28;20025;-78
2021/12/02 07:30:23;;;;;;;15.77;6.97;;;2.80;98.00;;;;;;5018522;28;20037;-77
2021/12/02 07:32:53;;;;;;;9.30;3.55;;;2.80;98.00;;;;;;5017631;28;20030;-77
2021/12/02 07:35:19;;;;;;;16.77;7.72;;;2.80;98.00;;;;;;5017332;28;20041;-77
2021/12/02 07:37:48;;;;;;;5.90;2.45;;;2.90;98.00;;;;;;5016760;28;20026;-77
2021/12/02 07:40:16;;;;;;;6.70;2.85;;;3.00;98.00;;;;;;5017064;28;20032;-76
2021/12/02 07:42:47;;;;;;;10.20;3.95;;;3.00;98.00;;;;;;5017699;28;20418;-79
2021/12/02 07:45:14;;;;;;;8.00;3.55;;;3.20;98.00;;;;;;5017926;28;20026;-76
2021/12/02 07:47:40;;;;;;;6.35;2.42;;;3.20;98.00;;;;;;5016843;28;20034;-76
2021/12/02 07:50:09;;;;;;;14.75;3.42;;;3.20;98.00;;;;;;5017440;28;20053;-77
2021/12/02 07:52:38;;;;;;;6.53;2.17;;;3.10;98.00;;;;;;5015938;28;20028;-76
2021/12/02 07:55:08;;;;;;;6.60;3.03;;;3.00;98.00;;;;;;5018047;28;20041;-76
2021/12/02 07:57:37;;;;;;;5.82;2.88;;;2.90;98.00;;;;;;5016213;28;20370;-76
2021/12/02 08:00:04;;;;;;;5.60;2.10;;;2.90;98.00;;;;;;5016609;28;20034;-76
2021/12/02 08:02:33;;;;;;;4.32;1.83;;;2.80;98.00;;;;;;5016168;28;20029;-78
2021/12/02 08:04:59;;;;;;;5.32;2.10;;;2.60;98.00;;;;;;5017670;28;20026;-77
2021/12/02 08:07:25;;;;;;;5.13;2.47;;;2.50;98.00;;;;;;5016721;28;20109;-77
2021/12/02 08:09:52;;;;;;;2.75;1.40;;;2.40;98.00;;;;;;5016277;28;20033;-76
2021/12/02 08:12:20;;;;;;;4.65;2.28;;;2.30;98.00;;;;;;5017040;28;20117;-76
2021/12/02 08:14:46;;;;;;;3.88;1.58;;;2.30;98.00;;;;;;5016855;28;20036;-76
2021/12/02 08:17:12;;;;;;;4.10;2.03;;;2.20;98.00;;;;;;5006911;28;20121;-76
2021/12/02 08:19:37;;;;;;;3.20;1.30;;;2.20;98.00;;;;;;5002738;28;20111;-78
2021/12/02 08:22:03;;;;;;;2.53;1.50;;;2.20;98.00;;;;;;5015139;28;20022;-78
2021/12/02 08:24:29;;;;;;;3.72;1.60;;;2.30;98.00;;;;;;5016262;28;20025;-76
2021/12/02 08:26:54;;;;;;;6.03;2.67;;;2.30;98.00;;;;;;5017297;28;20064;-79
2021/12/02 08:29:21;;;;;;;4.13;1.98;;;2.30;98.00;;;;;;5013766;28;20120;-77
2021/12/02 08:31:48;;;;;;;4.18;1.80;;;2.30;98.00;;;;;;4996809;28;20117;-77
2021/12/02 08:34:16;;;;;;;5.55;1.90;;;2.20;98.00;;;;;;4996114;28;20416;-79
2021/12/02 08:36:53;;;;;;;5.03;1.88;;;2.20;98.00;;;;;;4997242;28;20105;-77
2021/12/02 08:39:24;;;;;;;6.93;3.28;;;2.10;98.00;;;;;;5009270;28;20450;-76
2021/12/02 08:41:54;;;;;;;6.10;2.58;;;2.10;98.00;;;;;;5017099;28;20026;-76
2021/12/02 08:44:22;;;;;;;3.72;2.10;;;2.20;98.00;;;;;;5017123;28;20386;-77
2021/12/02 08:46:49;;;;;;;4.07;2.17;;;2.30;98.00;;;;;;5016026;28;20430;-77
2021/12/02 08:49:16;;;;;;;8.57;3.55;;;2.50;98.00;;;;;;5015755;28;20061;-77
2021/12/02 08:51:44;;;;;;;4.55;2.05;;;2.50;98.00;;;;;;5017136;28;20344;-77
2021/12/02 08:54:10;;;;;;;3.15;1.30;;;2.70;98.00;;;;;;5014861;28;20034;-77
2021/12/02 08:56:35;;;;;;;3.65;1.38;;;2.80;98.00;;;;;;5001552;28;20061;-76
2021/12/02 08:59:01;;;;;;;3.38;1.33;;;2.90;98.00;;;;;;5008884;28;20048;-77
2021/12/02 09:01:30;;;;;;;3.03;1.40;;;3.10;98.00;;;;;;5016801;28;20052;-77
2021/12/02 09:03:56;;;;;;;5.07;1.50;;;3.20;98.00;;;;;;5016635;28;20037;-76
2021/12/02 09:06:23;;;;;;;4.53;1.73;;;3.10;98.00;;;;;;5015228;28;20021;-76
2021/12/02 09:08:54;;;;;;;9.45;3.10;;;3.00;98.00;;;;;;5015415;28;20481;-76
2021/12/02 09:11:20;;;;;;;4.82;2.20;;;3.00;98.00;;;;;;5016598;28;20113;-78
2021/12/02 09:13:45;;;;;;;5.57;2.30;;;3.40;98.00;;;;;;5016632;28;20026;-77
2021/12/02 09:16:12;;;;;;;5.38;2.28;;;3.30;98.00;;;;;;5015341;28;20473;-77
2021/12/02 09:18:38;;;;;;;5.50;2.40;;;3.10;98.00;;;;;;5001929;28;20026;-76
2021/12/02 09:21:03;;;;;;;4.95;2.10;;;3.00;98.00;;;;;;4996819;28;20030;-76
2021/12/02 09:23:29;;;;;;;7.47;2.20;;;3.00;98.00;;;;;;4994630;28;20443;-76
2021/12/02 09:25:55;;;;;;;5.07;2.30;;;3.00;98.00;;;;;;5007959;28;20339;-77
2021/12/02 09:28:20;;;;;;;7.65;2.97;;;3.30;98.00;;;;;;5015281;28;20419;-76
2021/12/02 09:30:47;;;;;;;4.80;2.10;;;3.40;98.00;;;;;;5016226;28;20030;-76
2021/12/02 09:33:12;;;;;;;4.78;1.98;;;3.30;98.00;;;;;;5016224;28;20030;-77
2021/12/02 09:35:38;;;;;;;5.22;1.85;;;3.20;98.00;;;;;;5014644;28;20334;-77
2021/12/02 09:38:08;;;;;;;5.30;1.83;;;3.20;98.00;;;;;;5014057;28;20104;-77
2021/12/02 09:40:35;;;;;;;4.88;1.98;;;3.70;98.00;;;;;;4996519;28;20058;-78
2021/12/02 09:43:03;;;;;;;6.53;2.75;;;4.20;98.00;;;;;;4996587;28;20026;-77
2021/12/02 09:45:29;;;;;;;5.03;2.47;;;4.50;98.00;;;;;;5003406;28;20021;-77
2021/12/02 09:47:55;;;;;;;3.90;1.80;;;4.50;98.00;;;;;;5015945;28;20072;-76
2021/12/02 09:50:28;;;;;;;5.32;1.75;;;4.20;98.00;;;;;;5015528;28;20037;-77
2021/12/02 09:52:56;;;;;;;4.32;2.03;;;4.30;98.00;;;;;;5014584;28;20032;-77
2021/12/02 09:57:56;;;;;;;6.15;2.10;;;4.80;98.00;;;;;;4996146;28;20026;-77
2021/12/02 10:00:35;;;;;;;6.82;1.85;;;5.00;98.00;;;;;;5013106;28;20030;-78
2021/12/02 10:03:16;;;;;;;3.83;1.80;;;4.90;98.00;;;;;;5015832;28;20026;-77
2021/12/02 10:05:54;;;;;;;5.63;1.92;;;4.90;98.00;;;;;;5015007;28;20018;-79
2021/12/02 10:08:36;;;;;;;3.63;1.70;;;4.80;98.00;;;;;;5014497;28;20014;-76
2021/12/02 10:11:14;;;;;;;5.53;1.92;;;4.90;98.00;;;;;;5015852;28;20280;-76
2021/12/02 10:13:49;;;;;;;8.05;2.63;;;4.80;98.00;;;;;;4996210;28;20026;-77
2021/12/02 10:16:24;;;;;;;7.55;3.58;;;4.90;98.00;;;;;;5013032;28;20446;-77
2021/12/02 10:21:41;;;;;;;5.00;2.95;;;4.70;98.00;;;;;;5015563;28;20069;-77
2021/12/02 10:24:18;;;;;;;5.90;3.03;;;4.60;98.00;;;;;;5002086;28;20026;-77
2021/12/02 10:27:03;;;;;;;7.72;2.92;;;4.30;98.00;;;;;;4996023;28;20073;-78
2021/12/02 10:29:31;;;;;;;6.68;3.05;;;4.10;98.00;;;;;;4995803;28;20053;-77
2021/12/02 10:32:25;;;;;;;6.53;2.50;;;3.70;98.00;;;;;;5001757;28;20375;-78
2021/12/02 10:35:01;;;;;;;7.75;3.35;;;3.40;98.00;;;;;;5011888;28;20034;-78
2021/12/02 10:37:32;;;;;;;4.72;2.60;;;3.20;98.00;;;;;;5014041;28;20084;-78
2021/12/02 10:40:03;;;;;;;8.52;3.50;;;3.20;98.00;;;;;;5015461;28;20080;-78
2021/12/02 10:42:31;;;;;;;4.97;2.70;;;3.20;98.00;;;;;;5015205;28;20033;-78
2021/12/02 10:45:01;;;;;;;5.53;2.63;;;3.10;98.00;;;;;;5014473;28;20037;-78
2021/12/02 10:47:27;;;;;;;5.10;1.90;;;3.10;98.00;;;;;;5015448;28;20109;-78
2021/12/02 10:49:56;;;;;;;4.80;2.20;;;3.00;98.00;;;;;;5015479;28;20026;-78
2021/12/02 10:52:25;;;;;;;8.55;3.25;;;3.00;98.00;;;;;;5014268;28;20057;-78
2021/12/02 10:55:07;;;;;;;6.72;2.63;;;3.10;98.00;;;;;;5013787;28;20095;-78
2021/12/02 10:57:35;;;;;;;3.92;2.30;;;3.20;98.00;;;;;;5014471;28;20033;-77
2021/12/02 11:00:11;;;;;;;6.93;2.75;;;3.20;98.00;;;;;;5017116;28;20088;-77
2021/12/02 11:02:40;;;;;;;6.25;2.58;;;3.20;98.00;;;;;;5012597;28;20022;-77
2021/12/02 11:05:24;;;;;;;6.97;3.30;;;3.10;98.00;;;;;;5005827;28;20030;-76
2021/12/02 11:07:58;;;;;;;5.75;2.90;;;3.10;98.00;;;;;;5017809;28;20457;-76
2021/12/02 11:10:36;;;;;;;6.75;3.03;;;3.10;98.00;;;;;;5018303;28;20084;-76
2021/12/02 11:13:03;;;;;;;5.40;3.60;;;3.00;98.00;;;;;;5018308;28;20033;-78
2021/12/02 11:15:30;;;;;;;5.43;3.13;;;2.90;98.00;;;;;;5018820;28;20048;-78
2021/12/02 11:18:02;;;;;;;6.20;3.67;;;2.90;97.70;;;;;;5017667;28;20032;-78
2021/12/02 11:20:42;;;;;;;9.32;4.70;;;2.90;97.80;;;;;;5018101;28;20037;-78
2021/12/02 11:23:20;;;;;;;5.70;2.88;;;2.90;97.60;;;;;;5017095;28;20042;-78
2021/12/02 11:26:06;;;;;;;7.28;2.95;;;3.00;98.00;;;;;;5017144;28;20044;-78
2021/12/02 11:28:34;;;;;;;5.53;3.28;;;3.00;98.00;;;;;;5018441;28;20022;-77
2021/12/02 11:31:10;;;;;;;5.63;3.50;;;3.00;98.00;;;;;;5016840;28;20029;-77
2021/12/02 11:33:42;;;;;;;18.00;8.75;;;3.00;98.00;;;;;;5016941;28;20018;-78
2021/12/02 11:36:22;;;;;;;5.28;3.10;;;3.00;98.00;;;;;;5018173;28;20125;-77
2021/12/02 11:38:49;;;;;;;4.70;2.85;;;3.10;98.00;;;;;;5017274;28;20088;-77
2021/12/02 11:41:17;;;;;;;5.00;2.22;;;3.00;98.00;;;;;;5018067;28;20022;-77
2021/12/02 11:43:44;;;;;;;5.95;2.80;;;3.00;98.00;;;;;;5017808;28;20018;-77
2021/12/02 11:46:10;;;;;;;5.35;2.60;;;3.00;98.00;;;;;;5018173;28;20138;-77
2021/12/02 11:48:38;;;;;;;5.30;2.70;;;3.00;98.00;;;;;;5018120;28;20347;-77
2021/12/02 11:51:20;;;;;;;4.25;2.00;;;3.00;98.00;;;;;;5017296;28;20030;-77
2021/12/02 11:53:46;;;;;;;5.32;2.40;;;3.00;98.00;;;;;;5015432;28;20056;-77
2021/12/02 11:56:16;;;;;;;5.32;2.67;;;2.90;98.00;;;;;;5016967;28;20014;-77
2021/12/02 11:58:42;;;;;;;5.13;2.50;;;2.90;98.00;;;;;;5016928;28;20331;-78
2021/12/02 12:01:23;;;;;;;5.55;2.90;;;2.90;98.00;;;;;;5017782;28;20026;-76
2021/12/02 12:03:53;;;;;;;5.90;3.40;;;2.90;98.00;;;;;;5017251;28;20026;-77
2021/12/02 12:06:26;;;;;;;7.10;3.15;;;2.80;98.00;;;;;;5016900;28;20101;-77
2021/12/02 12:08:53;;;;;;;4.65;2.53;;;2.80;98.00;;;;;;5016454;28;20026;-78
2021/12/02 12:11:25;;;;;;;5.00;2.80;;;2.70;98.00;;;;;;5016594;28;20037;-80
2021/12/02 12:13:59;;;;;;;7.03;3.85;;;2.40;98.00;;;;;;5015315;28;20036;-79
2021/12/02 12:16:34;;;;;;;4.55;2.60;;;2.20;98.00;;;;;;5016459;28;20026;-78
2021/12/02 12:19:21;;;;;;;4.97;2.95;;;2.10;97.40;;;;;;5017496;28;20038;-78
2021/12/02 12:22:02;;;;;;;10.00;5.82;;;2.00;96.80;;;;;;5016914;28;20022;-78
2021/12/02 12:24:42;;;;;;;6.38;4.15;;;2.00;96.30;;;;;;5015262;28;20026;-78
2021/12/02 12:27:24;;;;;;;6.90;4.60;;;2.10;95.60;;;;;;5017220;28;20052;-78
2021/12/02 12:30:11;;;;;;;8.77;5.82;;;2.00;95.70;;;;;;5017243;28;20454;-78
2021/12/02 12:37:58;;;;;;;9.10;5.13;;;1.90;96.80;;;;;;4996613;28;20093;-78
2021/12/02 12:40:40;;;;;;;10.20;5.43;;;1.90;96.80;;;;;;4996363;28;20034;-78
2021/12/02 12:43:08;;;;;;;25.30;19.02;;;1.90;97.40;;;;;;5007839;28;20026;-78
2021/12/02 12:45:44;;;;;;;12.15;6.60;;;1.90;96.70;;;;;;5016339;28;20423;-78
2021/12/02 12:48:31;;;;;;;7.53;5.20;;;1.80;96.50;;;;;;5015927;28;20154;-78
2021/12/02 12:51:38;;;;;;;8.00;4.60;;;1.80;96.50;;;;;;5017067;28;20018;-78
2021/12/02 12:54:17;;;;;;;8.95;4.85;;;1.70;96.20;;;;;;5007955;28;20042;-78
2021/12/02 12:56:43;;;;;;;6.57;4.22;;;1.70;95.90;;;;;;5016858;28;20057;-78
2021/12/02 12:59:12;;;;;;;11.23;6.53;;;1.70;95.50;;;;;;5015783;28;20380;-78
2021/12/02 13:01:40;;;;;;;11.40;6.57;;;1.60;95.90;;;;;;5014485;28;20041;-78
2021/12/02 13:04:13;;;;;;;7.15;4.75;;;1.60;95.50;;;;;;5011840;28;20033;-78
2021/12/02 13:06:48;;;;;;;10.77;7.22;;;1.60;95.40;;;;;;4997218;28;20022;-78
2021/12/02 13:09:44;;;;;;;14.50;10.02;;;1.60;95.40;;;;;;4994856;28;20391;-78
2021/12/02 13:12:13;;;;;;;11.32;6.47;;;1.60;95.00;;;;;;5016056;28;20033;-78
2021/12/02 13:14:42;;;;;;;8.25;4.78;;;1.60;94.90;;;;;;5014901;28;20092;-78
2021/12/02 13:17:34;;;;;;;8.93;4.50;;;1.50;94.80;;;;;;5016468;28;20034;-78
2021/12/02 13:20:00;;;;;;;11.25;5.18;;;1.40;95.50;;;;;;5015151;28;20057;-78
2021/12/02 13:22:25;;;;;;;8.32;4.68;;;1.30;95.80;;;;;;5014303;28;20049;-77
2021/12/02 13:24:51;;;;;;;11.00;7.43;;;1.10;95.40;;;;;;5014449;28;20105;-78
2021/12/02 13:27:21;;;;;;;5.10;3.67;;;1.00;95.10;;;;;;5016367;28;20109;-77
2021/12/02 13:29:47;;;;;;;8.10;5.60;;;1.00;94.80;;;;;;5015202;28;20018;-77
2021/12/02 13:32:13;;;;;;;10.75;7.35;;;0.90;94.10;;;;;;5013929;28;20391;-78
2021/12/02 13:34:38;;;;;;;9.40;7.25;;;1.00;94.10;;;;;;5016393;28;20038;-77
2021/12/02 13:37:09;;;;;;;7.60;5.47;;;1.00;93.60;;;;;;5016146;28;20109;-78